createdAt,value
2018-07-25T00:02:12.617Z,21.16
2018-07-25T00:04:39.532Z,21.18
2018-07-25T00:07:06.442Z,21.18
2018-07-25T00:09:33.344Z,21.18
2018-07-25T00:12:00.241Z,21.11
2018-07-25T00:14:27.151Z,21.07
2018-07-25T00:16:54.017Z,20.91
2018-07-25T00:19:20.932Z,20.93
2018-07-25T00:21:47.849Z,20.90
2018-07-25T00:24:14.764Z,20.88
2018-07-25T00:26:41.669Z,20.86
2018-07-25T00:29:08.585Z,20.86
2018-07-25T00:31:35.497Z,20.80
2018-07-25T00:34:02.420Z,20.78
2018-07-25T00:36:29.309Z,20.72
2018-07-25T00:38:56.216Z,20.68
2018-07-25T00:41:23.124Z,20.66
2018-07-25T00:43:50.025Z,20.66
2018-07-25T00:46:16.934Z,20.62
2018-07-25T00:48:43.853Z,20.66
2018-07-25T00:51:10.756Z,20.69
2018-07-25T00:53:37.709Z,20.68
2018-07-25T00:56:04.633Z,20.71
2018-07-25T00:58:31.547Z,20.71
2018-07-25T01:00:58.494Z,20.69
2018-07-25T01:03:25.392Z,20.60
2018-07-25T01:05:52.297Z,20.62
2018-07-25T01:08:19.219Z,20.60
2018-07-25T01:10:46.116Z,20.57
2018-07-25T01:13:13.035Z,20.49
2018-07-25T01:15:40.144Z,20.51
2018-07-25T01:18:07.276Z,20.52
2018-07-25T01:20:34.208Z,20.48
2018-07-25T01:23:01.120Z,20.39
2018-07-25T01:25:28.017Z,20.44
2018-07-25T01:27:54.913Z,20.41
2018-07-25T01:30:21.840Z,20.35
2018-07-25T01:32:48.729Z,20.34
2018-07-25T01:35:15.625Z,20.35
2018-07-25T01:37:42.523Z,20.33
2018-07-25T01:40:09.432Z,20.31
2018-07-25T01:42:36.337Z,20.32
2018-07-25T01:45:03.360Z,20.27
2018-07-25T01:47:30.249Z,20.20
2018-07-25T01:49:57.180Z,20.12
2018-07-25T01:52:24.091Z,19.98
2018-07-25T01:54:51.015Z,19.91
2018-07-25T01:57:17.922Z,20.03
2018-07-25T01:59:44.822Z,20.02
2018-07-25T02:02:11.729Z,20.10
2018-07-25T02:04:38.636Z,20.01
2018-07-25T02:07:05.537Z,19.91
2018-07-25T02:09:32.478Z,19.90
2018-07-25T02:11:59.367Z,20.00
2018-07-25T02:14:26.268Z,19.95
2018-07-25T02:16:53.191Z,19.93
2018-07-25T02:19:20.101Z,19.87
2018-07-25T02:21:47.013Z,19.88
2018-07-25T02:24:13.904Z,19.95
2018-07-25T02:26:40.824Z,19.95
2018-07-25T02:29:08.226Z,19.86
2018-07-25T02:31:35.136Z,19.77
2018-07-25T02:34:07.860Z,19.71
2018-07-25T02:36:34.764Z,19.79
2018-07-25T02:39:01.660Z,19.82
2018-07-25T02:41:28.562Z,19.76
2018-07-25T02:43:55.456Z,19.66
2018-07-25T02:46:22.353Z,19.73
2018-07-25T02:48:49.245Z,19.76
2018-07-25T02:51:16.137Z,19.69
2018-07-25T02:53:43.032Z,19.59
2018-07-25T02:56:09.928Z,19.61
2018-07-25T02:58:36.825Z,19.50
2018-07-25T03:01:03.764Z,19.44
2018-07-25T03:03:30.658Z,19.43
2018-07-25T03:05:57.623Z,19.35
2018-07-25T03:08:24.525Z,19.40
2018-07-25T03:10:53.727Z,19.45
2018-07-25T03:13:21.044Z,19.55
2018-07-25T03:16:01.198Z,19.53
2018-07-25T03:18:28.464Z,19.50
2018-07-25T03:20:55.486Z,19.46
2018-07-25T03:23:22.488Z,19.46
2018-07-25T03:25:49.409Z,19.43
2018-07-25T03:28:16.325Z,19.44
2018-07-25T03:30:43.261Z,19.47
2018-07-25T03:33:10.260Z,19.50
2018-07-25T03:35:37.201Z,19.53
2018-07-25T03:38:04.252Z,19.55
2018-07-25T03:40:31.211Z,19.62
2018-07-25T03:42:58.137Z,19.69
2018-07-25T03:45:25.065Z,19.77
2018-07-25T03:47:52.008Z,19.71
2018-07-25T03:50:18.933Z,19.70
2018-07-25T03:52:45.879Z,19.73
2018-07-25T03:55:12.809Z,19.63
2018-07-25T03:57:39.729Z,19.60
2018-07-25T04:00:06.661Z,19.70
2018-07-25T04:02:33.625Z,19.87
2018-07-25T04:05:00.520Z,19.98
2018-07-25T04:07:27.444Z,20.03
2018-07-25T04:09:54.358Z,20.19
2018-07-25T04:12:21.304Z,20.18
2018-07-25T04:14:48.253Z,20.23
2018-07-25T04:17:15.164Z,20.16
2018-07-25T04:19:42.093Z,20.22
2018-07-25T04:22:09.048Z,20.15
2018-07-25T04:24:36.063Z,20.19
2018-07-25T04:27:02.981Z,20.31
2018-07-25T04:29:29.924Z,20.43
2018-07-25T04:31:56.836Z,20.40
2018-07-25T04:34:23.744Z,20.39
2018-07-25T04:36:50.685Z,20.40
2018-07-25T04:39:17.627Z,20.42
2018-07-25T04:41:44.587Z,20.53
2018-07-25T04:44:11.489Z,20.54
2018-07-25T04:46:38.633Z,20.53
2018-07-25T04:49:05.489Z,20.58
2018-07-25T04:51:32.397Z,20.66
2018-07-25T04:53:59.316Z,20.71
2018-07-25T04:56:26.245Z,20.72
2018-07-25T04:58:53.192Z,20.73
2018-07-25T05:01:20.139Z,20.86
2018-07-25T05:03:47.068Z,21.00
2018-07-25T05:06:13.987Z,21.16
2018-07-25T05:08:41.375Z,21.24
2018-07-25T05:11:08.307Z,21.20
2018-07-25T05:13:35.212Z,21.45
2018-07-25T05:16:02.134Z,21.60
2018-07-25T05:18:29.073Z,21.65
2018-07-25T05:20:55.996Z,21.82
2018-07-25T05:23:22.993Z,21.90
2018-07-25T05:25:49.911Z,22.07
2018-07-25T05:28:16.866Z,22.22
2018-07-25T05:30:43.789Z,22.35
2018-07-25T05:33:10.733Z,22.54
2018-07-25T05:35:37.661Z,22.65
2018-07-25T05:38:04.594Z,22.86
2018-07-25T05:40:31.509Z,23.07
2018-07-25T05:42:58.456Z,23.08
2018-07-25T05:45:25.441Z,23.22
2018-07-25T05:47:52.384Z,23.18
2018-07-25T05:50:19.300Z,23.16
2018-07-25T05:52:46.210Z,23.15
2018-07-25T05:55:13.120Z,23.36
2018-07-25T05:57:40.033Z,23.60
2018-07-25T06:00:06.980Z,23.60
2018-07-25T06:02:33.897Z,23.69
2018-07-25T06:05:00.896Z,23.68
2018-07-25T06:07:27.832Z,23.79
2018-07-25T06:09:54.724Z,23.76
2018-07-25T06:12:21.688Z,23.84
2018-07-25T06:14:48.604Z,23.94
2018-07-25T06:17:15.533Z,24.09
2018-07-25T06:19:42.429Z,24.56
2018-07-25T06:22:09.387Z,24.45
2018-07-25T06:24:36.307Z,24.29
2018-07-25T06:27:03.237Z,24.67
2018-07-25T06:29:30.188Z,24.53
2018-07-25T06:31:57.131Z,24.67
2018-07-25T06:34:24.060Z,24.86
2018-07-25T06:36:51.175Z,24.87
2018-07-25T06:39:18.085Z,24.84
2018-07-25T06:41:45.008Z,24.88
2018-07-25T06:44:11.933Z,24.85
2018-07-25T06:46:38.920Z,25.02
2018-07-25T06:49:06.738Z,25.18
2018-07-25T06:51:33.664Z,25.50
2018-07-25T06:54:00.613Z,25.70
2018-07-25T06:56:27.552Z,25.95
2018-07-25T06:58:54.508Z,25.89
2018-07-25T07:01:21.473Z,26.21
2018-07-25T07:03:48.425Z,26.03
2018-07-25T07:06:15.361Z,26.11
2018-07-25T07:08:42.308Z,26.19
2018-07-25T07:11:09.244Z,26.17
2018-07-25T07:13:36.165Z,26.00
2018-07-25T07:16:03.101Z,25.96
2018-07-25T07:18:30.030Z,26.22
2018-07-25T07:20:56.948Z,26.62
2018-07-25T07:23:23.913Z,26.78
2018-07-25T07:25:50.909Z,27.27
2018-07-25T07:28:17.808Z,27.37
2018-07-25T07:30:44.720Z,27.46
2018-07-25T07:33:11.663Z,27.58
2018-07-25T07:35:38.819Z,27.88
2018-07-25T07:38:05.810Z,28.53
2018-07-25T07:40:32.744Z,28.42
2018-07-25T07:42:59.658Z,28.96
2018-07-25T07:45:26.585Z,28.94
2018-07-25T07:47:53.534Z,27.93
2018-07-25T07:50:20.470Z,28.16
2018-07-25T07:52:47.388Z,28.78
2018-07-25T07:55:14.311Z,28.51
2018-07-25T07:57:41.227Z,28.60
2018-07-25T08:00:08.210Z,29.09
2018-07-25T08:02:35.546Z,29.78
2018-07-25T08:05:02.626Z,28.73
2018-07-25T08:07:29.556Z,28.95
2018-07-25T08:09:56.496Z,30.41
2018-07-25T08:12:23.436Z,30.78
2018-07-25T08:14:50.370Z,30.32
2018-07-25T08:17:17.291Z,29.99
2018-07-25T08:19:44.261Z,30.04
2018-07-25T08:22:11.132Z,31.34
2018-07-25T08:24:38.055Z,30.67
2018-07-25T08:27:04.981Z,30.41
2018-07-25T08:29:31.925Z,29.66
2018-07-25T08:31:59.628Z,30.81
2018-07-25T08:34:26.613Z,31.47
2018-07-25T08:36:53.488Z,31.23
2018-07-25T08:39:20.416Z,31.21
2018-07-25T08:41:47.358Z,31.32
2018-07-25T08:44:14.301Z,32.11
2018-07-25T08:46:41.269Z,32.06
2018-07-25T08:49:08.216Z,31.75
2018-07-25T08:51:35.124Z,30.96
2018-07-25T08:54:02.083Z,31.68
2018-07-25T08:56:29.047Z,31.85
2018-07-25T08:58:56.020Z,30.96
2018-07-25T09:01:23.281Z,31.89
2018-07-25T09:03:50.228Z,31.51
2018-07-25T09:06:17.190Z,32.23
2018-07-25T09:08:45.098Z,31.99
2018-07-25T09:11:12.088Z,31.24
2018-07-25T09:13:39.037Z,31.19
2018-07-25T09:16:06.111Z,31.85
2018-07-25T09:18:33.067Z,32.27
2018-07-25T09:21:00.017Z,31.35
2018-07-25T09:23:26.928Z,31.75
2018-07-25T09:25:53.892Z,31.89
2018-07-25T09:28:20.840Z,31.72
2018-07-25T09:30:47.811Z,32.84
2018-07-25T09:33:14.744Z,33.06
2018-07-25T09:35:41.692Z,33.16
2018-07-25T09:38:08.604Z,33.56
2018-07-25T09:40:35.540Z,32.32
2018-07-25T09:43:02.483Z,32.94
2018-07-25T09:45:29.420Z,33.15
2018-07-25T09:47:56.348Z,32.18
2018-07-25T09:50:23.332Z,33.15
2018-07-25T09:52:50.296Z,33.62
2018-07-25T09:55:17.232Z,33.44
2018-07-25T09:57:44.161Z,33.15
2018-07-25T10:00:12.382Z,33.82
2018-07-25T10:02:40.011Z,32.47
2018-07-25T10:05:07.706Z,33.49
2018-07-25T10:07:34.773Z,33.85
2018-07-25T10:10:01.653Z,32.86
2018-07-25T10:12:28.644Z,34.04
2018-07-25T10:14:55.731Z,34.07
2018-07-25T10:17:22.640Z,34.50
2018-07-25T10:19:49.604Z,34.76
2018-07-25T10:22:16.528Z,35.03
2018-07-25T10:24:43.506Z,35.19
2018-07-25T10:27:10.507Z,34.23
2018-07-25T10:29:37.377Z,34.30
2018-07-25T10:32:04.467Z,34.65
2018-07-25T10:34:31.361Z,35.22
2018-07-25T10:36:58.278Z,34.24
2018-07-25T10:39:25.228Z,33.91
2018-07-25T10:41:52.170Z,33.58
2018-07-25T10:44:19.185Z,33.38
2018-07-25T10:46:46.128Z,33.71
2018-07-25T10:49:13.045Z,33.69
2018-07-25T10:51:39.997Z,34.83
2018-07-25T10:54:06.919Z,35.06
2018-07-25T10:56:33.865Z,35.34
2018-07-25T10:59:00.796Z,34.88
2018-07-25T11:01:27.739Z,34.91
2018-07-25T11:03:54.686Z,34.79
2018-07-25T11:06:21.655Z,35.06
2018-07-25T11:08:48.704Z,35.19
2018-07-25T11:11:15.672Z,33.65
2018-07-25T11:13:42.628Z,33.03
2018-07-25T11:16:09.620Z,33.84
2018-07-25T11:18:36.632Z,34.37
2018-07-25T11:21:03.565Z,34.52
2018-07-25T11:23:30.477Z,35.10
2018-07-25T11:25:57.421Z,34.17
2018-07-25T11:28:24.717Z,32.92
2018-07-25T11:30:51.650Z,32.68
2018-07-25T11:33:18.733Z,32.00
2018-07-25T11:35:45.653Z,32.28
2018-07-25T11:38:12.604Z,31.92
2018-07-25T11:40:39.528Z,31.92
2018-07-25T11:43:06.486Z,32.15
2018-07-25T11:45:33.416Z,32.36
2018-07-25T11:48:00.352Z,32.26
2018-07-25T11:50:27.374Z,31.89
2018-07-25T11:52:54.557Z,31.76
2018-07-25T11:55:21.487Z,31.93
2018-07-25T11:57:48.405Z,32.06
2018-07-25T12:00:15.367Z,32.28
2018-07-25T12:02:42.317Z,32.18
2018-07-25T12:05:09.237Z,32.27
2018-07-25T12:07:36.148Z,32.48
2018-07-25T12:10:03.348Z,33.31
2018-07-25T12:12:30.284Z,34.29
2018-07-25T12:14:57.213Z,34.03
2018-07-25T12:17:24.164Z,33.22
2018-07-25T12:19:51.100Z,33.57
2018-07-25T12:22:18.043Z,34.40
2018-07-25T12:24:44.950Z,34.77
2018-07-25T12:27:11.882Z,34.82
2018-07-25T12:29:38.809Z,33.84
2018-07-25T12:32:05.830Z,33.67
2018-07-25T12:34:32.724Z,34.63
2018-07-25T12:36:59.709Z,35.28
2018-07-25T12:39:26.668Z,35.51
2018-07-25T12:41:53.621Z,36.11
2018-07-25T12:44:20.561Z,36.26
2018-07-25T12:46:47.509Z,35.18
2018-07-25T12:49:14.448Z,36.00
2018-07-25T12:51:41.373Z,35.90
2018-07-25T12:54:08.340Z,35.71
2018-07-25T12:56:35.220Z,35.90
2018-07-25T12:59:02.165Z,34.18
2018-07-25T13:01:29.092Z,33.49
2018-07-25T13:03:56.017Z,33.51
2018-07-25T13:06:22.940Z,33.79
2018-07-25T13:08:49.907Z,34.15
2018-07-25T13:11:16.832Z,34.12
2018-07-25T13:13:43.760Z,34.04
2018-07-25T13:16:10.693Z,33.49
2018-07-25T13:18:38.021Z,33.28
2018-07-25T13:21:04.996Z,33.25
2018-07-25T13:23:31.937Z,33.12
2018-07-25T13:25:58.868Z,32.52
2018-07-25T13:28:25.918Z,32.40
2018-07-25T13:30:52.761Z,32.16
2018-07-25T13:33:19.690Z,32.16
2018-07-25T13:35:46.608Z,31.14
2018-07-25T13:38:13.555Z,28.51
2018-07-25T13:40:40.492Z,27.96
2018-07-25T13:43:07.437Z,27.06
2018-07-25T13:45:34.487Z,26.65
2018-07-25T13:48:01.294Z,26.35
2018-07-25T13:50:28.220Z,26.33
2018-07-25T13:52:55.145Z,23.90
2018-07-25T13:55:22.071Z,21.94
2018-07-25T13:57:49.007Z,21.69
2018-07-25T14:00:15.931Z,21.73
2018-07-25T14:02:42.854Z,21.82
2018-07-25T14:05:09.832Z,21.89
2018-07-25T14:07:36.700Z,22.03
2018-07-25T14:10:04.247Z,22.31
2018-07-25T14:12:31.152Z,22.03
2018-07-25T14:14:58.101Z,21.22
2018-07-25T14:17:25.028Z,20.91
2018-07-25T14:19:51.969Z,20.31
2018-07-25T14:22:18.952Z,20.08
2018-07-25T14:24:45.885Z,20.52
2018-07-25T14:27:12.908Z,21.27
2018-07-25T14:29:39.769Z,21.28
2018-07-25T14:32:06.917Z,21.45
2018-07-25T14:34:33.868Z,21.62
2018-07-25T14:37:00.816Z,21.93
2018-07-25T14:39:27.786Z,22.03
2018-07-25T14:41:54.709Z,22.07
2018-07-25T14:44:21.636Z,22.34
2018-07-25T14:46:48.585Z,22.30
2018-07-25T14:49:15.504Z,22.49
2018-07-25T14:51:42.437Z,22.46
2018-07-25T14:54:09.428Z,22.53
2018-07-25T14:56:36.369Z,22.06
2018-07-25T14:59:03.297Z,22.34
2018-07-25T15:01:30.233Z,22.54
2018-07-25T15:03:57.180Z,22.75
2018-07-25T15:06:24.114Z,22.80
2018-07-25T15:08:51.045Z,22.05
2018-07-25T15:11:17.957Z,21.89
2018-07-25T15:13:44.922Z,21.90
2018-07-25T15:16:11.848Z,22.02
2018-07-25T15:18:38.792Z,22.14
2018-07-25T15:21:05.995Z,22.16
2018-07-25T15:23:44.547Z,22.31
2018-07-25T15:26:11.357Z,22.27
2018-07-25T15:28:38.317Z,22.18
2018-07-25T15:31:05.246Z,22.28
2018-07-25T15:33:32.268Z,22.29
2018-07-25T15:35:59.195Z,22.24
2018-07-25T15:38:26.133Z,22.09
2018-07-25T15:40:53.088Z,22.11
2018-07-25T15:43:20.033Z,22.05
2018-07-25T15:45:47.092Z,22.07
2018-07-25T15:48:14.105Z,22.13
2018-07-25T15:50:41.060Z,22.39
2018-07-25T15:53:08.038Z,22.32
2018-07-25T15:55:34.988Z,22.45
2018-07-25T15:58:01.922Z,22.57
2018-07-25T16:00:28.857Z,22.83
2018-07-25T16:02:55.773Z,23.01
2018-07-25T16:05:22.764Z,23.19
2018-07-25T16:07:49.757Z,23.45
2018-07-25T16:10:16.737Z,23.60
2018-07-25T16:12:43.708Z,23.65
2018-07-25T16:15:10.707Z,23.48
2018-07-25T16:17:37.669Z,23.71
2018-07-25T16:20:04.689Z,23.74
2018-07-25T16:22:31.633Z,24.19
2018-07-25T16:24:58.620Z,24.52
2018-07-25T16:27:25.592Z,24.69
2018-07-25T16:29:52.537Z,24.83
2018-07-25T16:32:19.529Z,24.61
2018-07-25T16:34:46.485Z,24.79
2018-07-25T16:37:13.441Z,24.91
2018-07-25T16:39:40.420Z,25.37
2018-07-25T16:42:07.384Z,25.28
2018-07-25T16:44:34.345Z,25.53
2018-07-25T16:47:01.316Z,25.48
2018-07-25T16:49:28.258Z,25.70
2018-07-25T16:51:55.247Z,25.34
2018-07-25T16:54:22.189Z,25.49
2018-07-25T16:56:49.142Z,25.82
2018-07-25T16:59:16.047Z,25.96
2018-07-25T17:01:42.972Z,26.10
2018-07-25T17:04:09.917Z,25.85
2018-07-25T17:06:36.881Z,26.05
2018-07-25T17:09:06.553Z,25.96
2018-07-25T17:11:33.512Z,25.93
2018-07-25T17:14:00.444Z,26.24
2018-07-25T17:16:27.389Z,26.23
2018-07-25T17:18:54.338Z,26.17
2018-07-25T17:21:21.272Z,26.06
2018-07-25T17:23:48.205Z,26.14
2018-07-25T17:26:15.149Z,26.21
2018-07-25T17:28:42.112Z,26.33
2018-07-25T17:31:09.074Z,26.30
2018-07-25T17:33:36.024Z,26.23
2018-07-25T17:36:02.989Z,26.32
2018-07-25T17:38:29.918Z,26.29
2018-07-25T17:40:56.853Z,26.44
2018-07-25T17:43:23.816Z,26.32
2018-07-25T17:45:50.772Z,26.39
2018-07-25T17:48:17.723Z,26.27
2018-07-25T17:50:44.686Z,26.25
2018-07-25T17:53:13.189Z,26.27
2018-07-25T17:55:40.129Z,26.41
2018-07-25T17:58:07.101Z,26.34
2018-07-25T18:00:34.048Z,26.18
2018-07-25T18:03:00.985Z,26.27
2018-07-25T18:05:27.929Z,26.28
2018-07-25T18:07:54.854Z,26.15
2018-07-25T18:10:21.802Z,26.05
2018-07-25T18:12:48.767Z,25.94
2018-07-25T18:15:15.700Z,25.90
2018-07-25T18:17:42.604Z,25.80
2018-07-25T18:20:09.550Z,25.82
2018-07-25T18:22:36.468Z,25.74
2018-07-25T18:25:03.752Z,25.79
2018-07-25T18:27:30.768Z,25.86
2018-07-25T18:29:57.799Z,26.09
2018-07-25T18:32:24.758Z,26.07
2018-07-25T18:34:51.720Z,25.95
2018-07-25T18:37:19.479Z,25.77
2018-07-25T18:39:46.465Z,25.83
2018-07-25T18:42:13.407Z,25.71
2018-07-25T18:44:40.340Z,25.76
2018-07-25T18:47:07.382Z,25.68
2018-07-25T18:49:34.277Z,25.66
2018-07-25T18:52:01.229Z,25.57
2018-07-25T18:54:28.366Z,25.55
2018-07-25T18:56:55.318Z,25.50
2018-07-25T18:59:22.570Z,25.43
2018-07-25T19:01:49.691Z,25.37
2018-07-25T19:04:16.712Z,25.35
2018-07-25T19:06:43.654Z,25.24
2018-07-25T19:09:15.140Z,25.20
2018-07-25T19:11:42.109Z,25.11
2018-07-25T19:14:15.087Z,25.05
2018-07-25T19:16:42.023Z,24.89
2018-07-25T19:19:09.595Z,24.69
2018-07-25T19:21:36.596Z,24.52
2018-07-25T19:24:03.509Z,24.38
2018-07-25T19:26:30.420Z,24.31
2018-07-25T19:28:57.464Z,24.15
2018-07-25T19:31:24.473Z,24.13
2018-07-25T19:33:51.398Z,23.97
2018-07-25T19:36:18.353Z,23.96
2018-07-25T19:38:45.253Z,23.90
2018-07-25T19:41:12.188Z,23.71
2018-07-25T19:43:39.088Z,23.66
2018-07-25T19:46:06.019Z,23.59
2018-07-25T19:48:32.929Z,23.46
2018-07-25T19:50:59.964Z,23.40
2018-07-25T19:53:26.924Z,23.46
2018-07-25T19:55:53.868Z,23.46
2018-07-25T19:58:20.876Z,23.39
2018-07-25T20:00:47.833Z,23.22
2018-07-25T20:03:14.814Z,23.15
2018-07-25T20:05:41.756Z,23.12
2018-07-25T20:08:08.724Z,23.30
2018-07-25T20:10:35.628Z,23.19
2018-07-25T20:13:02.561Z,23.36
2018-07-25T20:15:35.114Z,23.34
2018-07-25T20:18:02.094Z,23.20
2018-07-25T20:20:28.985Z,23.16
2018-07-25T20:22:55.932Z,23.08
2018-07-25T20:25:22.854Z,23.15
2018-07-25T20:27:49.877Z,23.10
2018-07-25T20:30:16.804Z,22.94
2018-07-25T20:32:43.721Z,22.83
2018-07-25T20:35:10.645Z,22.81
2018-07-25T20:37:37.656Z,22.72
2018-07-25T20:40:04.898Z,22.68
2018-07-25T20:42:31.821Z,22.83
2018-07-25T20:44:58.763Z,22.89
2018-07-25T20:47:25.681Z,22.96
2018-07-25T20:49:52.597Z,22.89
2018-07-25T20:52:19.545Z,22.91
2018-07-25T20:54:46.444Z,22.90
2018-07-25T20:57:13.360Z,22.70
2018-07-25T20:59:40.297Z,22.61
2018-07-25T21:02:07.309Z,22.55
2018-07-25T21:04:34.222Z,22.50
2018-07-25T21:07:01.237Z,22.36
2018-07-25T21:09:28.155Z,22.38
2018-07-25T21:11:55.084Z,22.28
2018-07-25T21:14:22.012Z,22.33
2018-07-25T21:16:48.933Z,22.27
2018-07-25T21:19:15.827Z,22.33
2018-07-25T21:21:42.803Z,22.23
2018-07-25T21:24:09.689Z,22.16
2018-07-25T21:26:36.579Z,22.20
2018-07-25T21:29:03.589Z,22.14
2018-07-25T21:31:30.500Z,22.10
2018-07-25T21:33:57.430Z,22.07
2018-07-25T21:36:24.353Z,22.03
2018-07-25T21:38:51.284Z,22.03
2018-07-25T21:41:18.177Z,21.95
2018-07-25T21:43:45.089Z,21.98
2018-07-25T21:46:12.009Z,21.92
2018-07-25T21:48:38.910Z,21.80
2018-07-25T21:51:05.987Z,21.77
2018-07-25T21:53:32.853Z,21.74
2018-07-25T21:55:59.760Z,21.79
2018-07-25T21:58:26.697Z,21.86
2018-07-25T22:00:55.886Z,21.75
2018-07-25T22:03:22.837Z,21.70
2018-07-25T22:05:49.763Z,21.71
2018-07-25T22:08:16.688Z,21.70
2018-07-25T22:10:43.596Z,21.60
2018-07-25T22:13:10.537Z,21.58
2018-07-25T22:15:37.465Z,21.55
2018-07-25T22:18:04.636Z,21.49
2018-07-25T22:20:31.573Z,21.52
2018-07-25T22:22:58.489Z,21.44
2018-07-25T22:25:25.384Z,21.35
2018-07-25T22:27:52.314Z,21.37
2018-07-25T22:30:19.297Z,21.33
2018-07-25T22:32:46.177Z,21.32
2018-07-25T22:35:13.121Z,21.48
2018-07-25T22:37:40.070Z,21.48
2018-07-25T22:40:06.981Z,21.39
2018-07-25T22:42:33.955Z,21.42
2018-07-25T22:45:00.885Z,21.33
2018-07-25T22:47:27.788Z,21.44
2018-07-25T22:49:54.737Z,21.33
2018-07-25T22:52:21.648Z,21.32
2018-07-25T22:54:48.858Z,21.30
2018-07-25T22:57:15.760Z,21.23
2018-07-25T22:59:43.184Z,21.24
2018-07-25T23:02:10.169Z,21.23
2018-07-25T23:04:37.073Z,21.24
2018-07-25T23:07:05.313Z,21.24
2018-07-25T23:09:32.991Z,21.17
2018-07-25T23:12:00.618Z,21.11
2018-07-25T23:14:27.560Z,21.12
2018-07-25T23:16:54.487Z,21.07
2018-07-25T23:19:22.155Z,21.03
2018-07-25T23:21:49.096Z,21.02
2018-07-25T23:24:16.726Z,21.02
2018-07-25T23:26:46.644Z,21.02
2018-07-25T23:29:13.616Z,21.02
2018-07-25T23:31:40.535Z,21.00
2018-07-25T23:34:07.469Z,20.98
2018-07-25T23:36:34.380Z,20.94
2018-07-25T23:39:01.290Z,20.88
2018-07-25T23:41:28.829Z,20.87
2018-07-25T23:43:55.792Z,20.93
2018-07-25T23:46:22.697Z,20.93
2018-07-25T23:48:49.633Z,21.07
2018-07-25T23:51:16.565Z,21.00
2018-07-25T23:53:43.688Z,20.94
2018-07-25T23:56:10.597Z,20.87
2018-07-25T23:58:38.596Z,20.90
